Terminal Aerodrome Forecast
Issued by NWS

Home | Current Version | Previous Version | Text Only | Print | Product List | Glossary On
Versions: 1 2 3 4 5 6 7 8 9 10 11 12 13 14 15 16 17 18 19 20 21 22 23 24 25
982
FTUS43 KSGF 220520
TAFBBG
TAF
KBBG 220520Z 2206/2306 11006KT P6SM OVC100
     FM220700 11004KT P6SM VCSH SCT050 OVC100
      TEMPO 2207/2210 4SM -SHRA OVC050
     FM221000 06004KT 2SM -RA BR OVC007
     FM222000 32015G22KT 4SM -RA BR OVC015
     FM222300 32015G25KT P6SM BKN100=

USA.gov is the U.S. government's official web portal to all federal, state and local government web resources and services.